Time;durP1;ratioP1;P1;durP2;ratioP2;P2;SDS_P1;SDS_P2;PMS_P1;PMS_P2;Temp;Humidity;BMP_temperature;BMP_pressure;BME280_temperature;BME280_humidity;BME280_pressure;Samples;Min_cycle;Max_cycle;Signal;HPM_P1;HPM_P2
2022/10/23 06:01:41;;;;;;;;;5.00;5.00;;;;;-147.14;100.00;58812.66;5364979;23;46279;-67
2022/10/23 06:04:06;;;;;;;;;6.00;4.67;;;;;-147.14;100.00;58812.66;4991885;28;45543;-69
2022/10/23 06:06:32;;;;;;;;;6.00;6.00;;;;;-147.14;100.00;58812.66;4984502;28;45991;-66
2022/10/23 06:08:57;;;;;;;;;6.00;6.00;;;;;-147.14;100.00;58812.66;4979782;28;52275;-69
2022/10/23 06:11:22;;;;;;;;;8.33;5.33;;;;;-147.14;100.00;58812.66;4983227;28;64289;-68
2022/10/23 06:13:48;;;;;;;;;7.67;7.67;;;;;-147.14;100.00;58812.66;4998311;28;45557;-68
2022/10/23 06:16:19;;;;;;;;;7.67;6.33;;;;;-147.14;100.00;58812.66;4987388;28;46066;-68
2022/10/23 06:18:45;;;;;;;;;5.33;4.33;;;;;-147.14;100.00;58812.66;4986884;28;45238;-68
2022/10/23 06:21:12;;;;;;;;;6.00;6.00;;;;;-147.14;100.00;58812.66;4991162;28;45453;-68
2022/10/23 06:23:38;;;;;;;;;6.33;5.00;;;;;-147.14;100.00;58812.66;4982399;28;45387;-68
2022/10/23 06:26:04;;;;;;;;;6.00;5.00;;;;;-147.14;100.00;58812.66;4984402;28;46054;-67
2022/10/23 06:28:30;;;;;;;;;11.00;6.00;;;;;-147.14;100.00;58812.66;4989546;28;45424;-68
2022/10/23 06:30:55;;;;;;;;;4.67;4.67;;;;;-147.14;100.00;58812.66;4994959;28;45350;-68
2022/10/23 06:33:20;;;;;;;;;6.67;5.00;;;;;-147.14;100.00;58812.66;4987723;28;67630;-68
2022/10/23 06:35:46;;;;;;;;;5.67;5.00;;;;;-147.14;100.00;58812.66;4987514;28;69962;-68
2022/10/23 06:38:11;;;;;;;;;8.67;6.33;;;;;-147.14;100.00;58812.66;4988709;28;63239;-68
2022/10/23 06:40:37;;;;;;;;;5.67;4.67;;;;;-147.14;100.00;58812.66;4987170;28;45943;-68
2022/10/23 06:43:03;;;;;;;;;3.67;3.67;;;;;-147.14;100.00;58812.66;4981539;28;45220;-68
2022/10/23 06:45:31;;;;;;;;;5.00;5.00;;;;;-147.14;100.00;58812.66;4984404;28;46134;-68
2022/10/23 06:47:56;;;;;;;;;4.00;4.00;;;;;-147.14;100.00;58812.66;4982154;28;45547;-68
2022/10/23 06:50:22;;;;;;;;;5.33;5.33;;;;;-147.14;100.00;58812.66;4979240;28;59636;-68
2022/10/23 06:52:47;;;;;;;;;3.67;3.67;;;;;-147.14;100.00;58812.66;4979179;28;45495;-68
2022/10/23 06:55:12;;;;;;;;;6.00;5.33;;;;;-147.14;100.00;58812.66;4986133;28;52842;-68
2022/10/23 06:57:38;;;;;;;;;4.67;4.67;;;;;-147.14;100.00;58812.66;4983243;28;45617;-68
2022/10/23 07:00:04;;;;;;;;;5.33;5.33;;;;;-147.14;100.00;58812.66;4982526;28;58649;-68
2022/10/23 07:02:29;;;;;;;;;6.33;6.33;;;;;-147.14;100.00;58812.66;4977865;28;45343;-65
2022/10/23 07:04:54;;;;;;;;;6.67;6.00;;;;;-147.14;100.00;58812.66;4983567;28;46232;-68
2022/10/23 07:07:19;;;;;;;;;5.00;4.00;;;;;-147.14;100.00;58812.66;4980450;28;69544;-68
2022/10/23 07:09:45;;;;;;;;;6.33;6.00;;;;;-147.14;100.00;58812.66;4978270;28;61319;-68
2022/10/23 07:12:10;;;;;;;;;4.00;4.00;;;;;-147.14;100.00;58812.66;4978206;28;64555;-67
2022/10/23 07:14:35;;;;;;;;;8.33;7.67;;;;;-147.14;100.00;58812.66;4978502;28;72811;-67
2022/10/23 07:17:01;;;;;;;;;5.67;5.67;;;;;-147.14;100.00;58812.66;4977869;28;68049;-67
2022/10/23 07:19:26;;;;;;;;;7.00;5.67;;;;;-147.14;100.00;58812.66;4979402;28;48424;-67
2022/10/23 07:21:51;;;;;;;;;7.67;7.67;;;;;-147.14;100.00;58812.66;4978318;28;45567;-67
2022/10/23 07:24:17;;;;;;;;;7.00;7.00;;;;;-147.14;100.00;58812.66;4978330;28;45221;-68
2022/10/23 07:26:43;;;;;;;;;6.00;6.00;;;;;-147.14;100.00;58812.66;4978127;28;46206;-67
2022/10/23 07:29:12;;;;;;;;;7.67;6.33;;;;;-147.14;100.00;58812.66;4978640;28;45378;-67
2022/10/23 07:31:37;;;;;;;;;6.00;6.00;;;;;-147.14;100.00;58812.66;4979022;28;45475;-68
2022/10/23 07:34:03;;;;;;;;;5.00;5.00;;;;;-147.14;100.00;58812.66;4988032;28;70634;-68
2022/10/23 07:36:28;;;;;;;;;7.00;6.00;;;;;-147.14;100.00;58812.66;4980266;28;45356;-68
2022/10/23 07:38:53;;;;;;;;;6.00;6.00;;;;;-147.14;100.00;58812.66;4977902;28;65371;-68
2022/10/23 07:41:19;;;;;;;;;6.67;6.33;;;;;-147.14;100.00;58812.66;4978779;28;45420;-68
2022/10/23 07:43:44;;;;;;;;;8.00;7.00;;;;;-147.14;100.00;58812.66;4994206;28;45449;-68
2022/10/23 07:46:10;;;;;;;;;8.67;6.00;;;;;-147.14;100.00;58812.66;4982158;28;45339;-69
2022/10/23 07:48:36;;;;;;;;;13.25;8.50;;;;;-147.14;100.00;58812.66;4981447;28;66654;-68
2022/10/23 07:51:09;;;;;;;;;8.25;6.25;;;;;-147.14;100.00;58812.66;4981860;28;45313;-68
2022/10/23 07:53:35;;;;;;;;;8.00;6.67;;;;;-147.14;100.00;58812.66;4982254;28;45543;-68
2022/10/23 07:56:03;;;;;;;;;7.67;5.67;;;;;-147.14;100.00;58812.66;4981502;28;45338;-69
2022/10/23 07:58:29;;;;;;;;;5.00;5.00;;;;;-147.14;100.00;58812.66;4982279;28;45280;-68
2022/10/23 08:00:57;;;;;;;;;7.33;7.33;;;;;-147.14;100.00;58812.66;4987877;28;65168;-68
2022/10/23 08:03:27;;;;;;;;;7.67;6.00;;;;;-147.14;100.00;58812.66;4983913;28;46930;-68
2022/10/23 08:05:53;;;;;;;;;10.33;6.67;;;;;-147.14;100.00;58812.66;5001533;28;45230;-68
2022/10/23 08:08:19;;;;;;;;;9.00;7.00;;;;;-147.14;100.00;58812.66;5001291;28;45337;-68
2022/10/23 08:10:46;;;;;;;;;6.67;6.00;;;;;-147.14;100.00;58812.66;5002987;28;45467;-68
2022/10/23 08:13:12;;;;;;;;;5.67;5.00;;;;;-147.14;100.00;58812.66;5005209;28;45341;-67
2022/10/23 08:15:39;;;;;;;;;6.33;5.00;;;;;-147.14;100.00;58812.66;5010201;28;45455;-68
2022/10/23 08:18:04;;;;;;;;;10.00;6.00;;;;;-147.14;100.00;58812.66;5006040;28;45479;-67
2022/10/23 08:20:30;;;;;;;;;9.00;4.67;;;;;-147.14;100.00;58812.66;5008954;28;45393;-68
2022/10/23 08:22:55;;;;;;;;;8.00;8.00;;;;;-147.14;100.00;58812.66;5010799;28;68422;-68
2022/10/23 08:25:21;;;;;;;;;9.67;7.67;;;;;-147.14;100.00;58812.66;5000163;28;45480;-68
2022/10/23 08:27:46;;;;;;;;;7.00;6.00;;;;;-147.14;100.00;58812.66;5000674;28;45680;-68
2022/10/23 08:30:11;;;;;;;;;7.33;6.00;;;;;-147.14;100.00;58812.66;5006882;28;62822;-68
2022/10/23 08:32:37;;;;;;;;;6.67;6.67;;;;;-147.14;100.00;58812.66;5001032;28;47642;-68
2022/10/23 08:35:02;;;;;;;;;5.67;5.67;;;;;-147.14;100.00;58812.66;4999644;28;67303;-68
2022/10/23 08:37:27;;;;;;;;;7.00;4.67;;;;;-147.14;100.00;58812.66;5006156;28;45451;-68
2022/10/23 08:39:54;;;;;;;;;10.00;7.00;;;;;-147.14;100.00;58812.66;5012213;28;65499;-68
2022/10/23 08:42:23;;;;;;;;;10.00;9.00;;;;;-147.14;100.00;58812.66;5005788;28;45886;-68
2022/10/23 08:45:04;;;;;;;;;6.67;6.00;;;;;-147.14;100.00;58812.66;4988378;28;45438;-68
2022/10/23 08:47:46;;;;;;;;;7.67;6.00;;;;;-147.14;100.00;58812.66;5006279;28;45628;-68
2022/10/23 08:50:18;;;;;;;;;7.00;5.33;;;;;-147.14;100.00;58812.66;4996461;28;45516;-68
2022/10/23 08:52:51;;;;;;;;;5.00;5.00;;;;;-147.14;100.00;58812.66;5011956;28;45332;-68
2022/10/23 08:55:22;;;;;;;;;6.00;6.00;;;;;-147.14;100.00;58812.66;4983289;28;45436;-68
2022/10/23 08:58:00;;;;;;;;;7.00;7.00;;;;;-147.14;100.00;58812.66;5010208;28;45221;-68
2022/10/23 09:00:26;;;;;;;;;9.50;6.00;;;;;-147.14;100.00;58812.66;5002939;28;45592;-68
2022/10/23 09:02:53;;;;;;;;;7.67;7.00;;;;;-147.14;100.00;58812.66;4997486;28;45721;-68
2022/10/23 09:05:49;;;;;;;;;8.00;6.00;;;;;-147.14;100.00;58812.66;4982466;28;45340;-68
2022/10/23 09:08:28;;;;;;;;;5.00;5.00;;;;;-147.14;100.00;58812.66;5004666;28;45391;-67
2022/10/23 09:11:46;;;;;;;;;9.00;6.67;;;;;-147.14;100.00;58812.66;5000087;28;45269;-70
2022/10/23 09:14:30;;;;;;;;;4.00;4.00;;;;;-147.14;100.00;58812.66;4992027;28;46266;-70
2022/10/23 09:17:17;;;;;;;;;3.00;2.50;;;;;-147.14;100.00;58812.66;4999837;28;45335;-68
2022/10/23 09:19:44;;;;;;;;;5.50;5.25;;;;;-147.14;100.00;58812.66;5007152;28;45499;-69
2022/10/23 09:22:10;;;;;;;;;6.25;5.25;;;;;-147.14;100.00;58812.66;5008032;28;45312;-70
2022/10/23 09:24:36;;;;;;;;;4.00;4.00;;;;;-147.14;100.00;58812.66;4995795;28;46509;-69
2022/10/23 09:27:01;;;;;;;;;4.50;4.50;;;;;-147.14;100.00;58812.66;5005133;28;60020;-66
2022/10/23 09:29:30;;;;;;;;;3.75;2.25;;;;;-147.14;100.00;58812.66;4999534;28;64476;-69
2022/10/23 09:31:58;;;;;;;;;5.25;5.25;;;;;-147.14;100.00;58812.66;4999018;28;45423;-70
2022/10/23 09:34:29;;;;;;;;;6.00;5.25;;;;;-147.14;100.00;58812.66;4999907;28;46348;-69
2022/10/23 09:37:00;;;;;;;;;4.50;4.50;;;;;-147.14;100.00;58812.66;4999541;28;45293;-69
2022/10/23 09:39:33;;;;;;;;;6.50;5.25;;;;;-147.14;100.00;58812.66;5000198;28;45654;-66
2022/10/23 09:42:01;;;;;;;;;5.25;4.75;;;;;-147.14;100.00;58812.66;4999565;28;45310;-68
2022/10/23 09:44:32;;;;;;;;;5.00;5.00;;;;;-147.14;100.00;58812.66;4999580;28;45995;-68
2022/10/23 09:47:10;;;;;;;;;6.75;5.25;;;;;-147.14;100.00;58812.66;4999613;28;45484;-67
2022/10/23 09:49:39;;;;;;;;;5.25;3.75;;;;;-147.14;100.00;58812.66;5000119;28;45334;-69
2022/10/23 09:52:35;;;;;;;;;5.00;5.00;;;;;-147.14;100.00;58812.66;5006708;28;45375;-69
2022/10/23 09:55:17;;;;;;;;;6.00;5.75;;;;;-147.14;100.00;58812.66;5006237;28;46187;-68
2022/10/23 09:57:43;;;;;;;;;4.00;4.00;;;;;-147.14;100.00;58812.66;5012902;28;45434;-67
2022/10/23 10:00:16;;;;;;;;;7.50;4.00;;;;;-147.14;100.00;58812.66;5001849;28;45484;-64
2022/10/23 10:02:53;;;;;;;;;5.00;5.00;;;;;-147.14;100.00;58812.66;4984196;28;45652;-65
2022/10/23 10:05:27;;;;;;;;;5.50;3.25;;;;;-147.14;100.00;58812.66;4993176;28;46719;-66
2022/10/23 10:08:02;;;;;;;;;3.75;3.00;;;;;-147.14;100.00;58812.66;4978306;28;45805;-65
2022/10/23 10:10:34;;;;;;;;;5.25;3.50;;;;;-147.14;100.00;58812.66;4987398;28;45372;-66
2022/10/23 10:13:06;;;;;;;;;7.25;5.75;;;;;-147.14;100.00;58812.66;4988798;28;45326;-65
2022/10/23 10:15:55;;;;;;;;;5.25;5.25;;;;;-147.14;100.00;58812.66;4981002;28;46126;-65
2022/10/23 10:18:30;;;;;;;;;5.75;5.75;;;;;-147.14;100.00;58812.66;4988310;28;45645;-65
2022/10/23 10:21:22;;;;;;;;;3.50;2.00;;;;;-147.14;100.00;58812.66;4989530;28;45492;-67
2022/10/23 10:23:56;;;;;;;;;4.00;4.00;;;;;-147.14;100.00;58812.66;4978305;28;45373;-65
2022/10/23 10:26:33;;;;;;;;;4.50;4.00;;;;;-147.14;100.00;58812.66;4986035;28;45514;-67
2022/10/23 10:29:05;;;;;;;;;6.00;4.25;;;;;-147.14;100.00;58812.66;4989238;28;45398;-67
2022/10/23 10:31:58;;;;;;;;;5.25;3.50;;;;;-147.14;100.00;58812.66;4980026;28;45303;-67
2022/10/23 10:34:34;;;;;;;;;5.00;3.50;;;;;-147.14;100.00;58812.66;4979854;28;45651;-68
2022/10/23 10:37:12;;;;;;;;;3.00;3.00;;;;;-147.14;100.00;58812.66;4989155;28;45426;-67
2022/10/23 10:39:48;;;;;;;;;3.25;3.25;;;;;-147.14;100.00;58812.66;4978426;28;45405;-68
2022/10/23 10:42:23;;;;;;;;;4.75;4.00;;;;;-147.14;100.00;58812.66;4978245;28;45469;-67
2022/10/23 10:45:04;;;;;;;;;5.50;4.00;;;;;-147.14;100.00;58812.66;4979389;28;45400;-67
2022/10/23 10:47:53;;;;;;;;;5.00;3.75;;;;;-147.14;100.00;58812.66;4979253;28;46197;-67
2022/10/23 10:50:27;;;;;;;;;3.25;3.00;;;;;-147.14;100.00;58812.66;4973892;28;45320;-68
2022/10/23 10:53:07;;;;;;;;;4.00;4.00;;;;;-147.14;100.00;58812.66;4978142;28;45349;-68
2022/10/23 10:55:53;;;;;;;;;4.00;4.00;;;;;-147.14;100.00;58812.66;4979235;28;45357;-68
2022/10/23 10:58:38;;;;;;;;;8.75;4.50;;;;;-147.14;100.00;58812.66;4978027;28;46384;-68
2022/10/23 11:01:25;;;;;;;;;4.50;4.50;;;;;-147.14;100.00;58812.66;5003990;28;45432;-68
2022/10/23 11:04:20;;;;;;;;;4.50;3.50;;;;;-147.14;100.00;58812.66;4979602;28;45408;-68
2022/10/23 11:06:48;;;;;;;;;5.00;3.00;;;;;-147.14;100.00;58812.66;4974200;28;45389;-68
2022/10/23 11:09:16;;;;;;;;;6.00;5.00;;;;;-147.14;100.00;58812.66;4981244;28;46146;-68
2022/10/23 11:11:42;;;;;;;;;5.25;5.00;;;;;-147.14;100.00;58812.66;4984023;28;45358;-68
2022/10/23 11:14:15;;;;;;;;;3.00;3.00;;;;;-147.14;100.00;58812.66;4979024;28;45230;-68
2022/10/23 11:16:45;;;;;;;;;8.00;5.00;;;;;-147.14;100.00;58812.66;4990238;28;45387;-68
2022/10/23 11:19:20;;;;;;;;;4.25;4.00;;;;;-147.14;100.00;58812.66;5002463;28;46298;-68
2022/10/23 11:22:06;;;;;;;;;1.75;1.25;;;;;-147.14;100.00;58812.66;4986633;28;45368;-68
2022/10/23 11:25:03;;;;;;;;;3.50;3.25;;;;;-147.14;100.00;58812.66;4996959;28;45632;-68
2022/10/23 11:27:44;;;;;;;;;6.67;3.33;;;;;-147.14;100.00;58812.66;4982639;28;45364;-68
2022/10/23 11:30:28;;;;;;;;;3.50;2.50;;;;;-147.14;100.00;58812.66;4981971;28;45495;-68
2022/10/23 11:33:35;;;;;;;;;2.25;2.25;;;;;-147.14;100.00;58812.66;4987705;28;45565;-67
2022/10/23 11:36:17;;;;;;;;;4.75;2.25;;;;;-147.14;100.00;58812.66;4986054;28;45364;-67
2022/10/23 11:38:45;;;;;;;;;4.25;3.00;;;;;-147.14;100.00;58812.66;4993641;28;45178;-67
2022/10/23 11:41:23;;;;;;;;;4.00;3.00;;;;;-147.14;100.00;58812.66;4990199;28;45467;-67
2022/10/23 11:43:51;;;;;;;;;3.75;3.50;;;;;-147.14;100.00;58812.66;4998173;28;45423;-67
2022/10/23 11:46:22;;;;;;;;;3.50;3.50;;;;;-147.14;100.00;58812.66;5000228;28;45359;-67
2022/10/23 11:48:48;;;;;;;;;5.50;3.75;;;;;-147.14;100.00;58812.66;4989069;28;45623;-67
2022/10/23 11:51:35;;;;;;;;;3.75;2.25;;;;;-147.14;100.00;58812.66;4982138;28;46022;-68
2022/10/23 11:54:24;;;;;;;;;1.75;1.75;;;;;-147.14;100.00;58812.66;4986912;28;45390;-68
2022/10/23 11:57:03;;;;;;;;;3.50;3.25;;;;;-147.14;100.00;58812.66;4987502;28;45296;-68
2022/10/23 11:59:34;;;;;;;;;3.75;3.25;;;;;-147.14;100.00;58812.66;4987189;28;45456;-68
2022/10/23 12:02:03;;;;;;;;;2.25;2.25;;;;;-147.14;100.00;58812.66;4991370;28;46319;-68
2022/10/23 12:04:38;;;;;;;;;4.75;3.50;;;;;-147.14;100.00;58812.66;4984419;28;45461;-68
2022/10/23 12:07:15;;;;;;;;;4.00;3.25;;;;;-147.14;100.00;58812.66;4994408;28;45301;-68
2022/10/23 12:09:44;;;;;;;;;4.25;3.25;;;;;-147.14;100.00;58812.66;4995398;28;45405;-68
2022/10/23 12:12:09;;;;;;;;;4.50;3.50;;;;;-147.14;100.00;58812.66;4983531;28;46501;-68
2022/10/23 12:14:46;;;;;;;;;3.75;3.75;;;;;-147.14;100.00;58812.66;4989601;28;45375;-67
2022/10/23 12:17:29;;;;;;;;;4.25;4.00;;;;;-147.14;100.00;58812.66;4992798;28;45440;-67
2022/10/23 12:20:03;;;;;;;;;2.00;2.00;;;;;-147.14;100.00;58812.66;4996364;28;45467;-68
2022/10/23 12:22:41;;;;;;;;;2.75;2.75;;;;;-147.14;100.00;58812.66;4992937;28;46166;-68
2022/10/23 12:25:23;;;;;;;;;5.50;3.25;;;;;-147.14;100.00;58812.66;4989871;28;45356;-68
2022/10/23 12:28:02;;;;;;;;;2.75;2.75;;;;;-147.14;100.00;58812.66;4999771;28;45313;-68
2022/10/23 12:31:13;;;;;;;;;3.25;3.25;;;;;-147.14;100.00;58812.66;4985598;28;45367;-68
2022/10/23 12:34:00;;;;;;;;;2.00;2.00;;;;;-147.14;100.00;58812.66;4998767;28;45418;-68
2022/10/23 12:36:43;;;;;;;;;3.00;3.00;;;;;-147.14;100.00;58812.66;4985293;28;45383;-68
2022/10/23 12:39:31;;;;;;;;;4.00;2.00;;;;;-147.14;100.00;58812.66;4985320;28;45339;-68
2022/10/23 12:41:58;;;;;;;;;5.00;3.75;;;;;-147.14;100.00;58812.66;4988088;28;45448;-68
2022/10/23 12:44:26;;;;;;;;;1.50;1.50;;;;;-147.14;100.00;58812.66;4981488;28;46380;-68
2022/10/23 12:46:57;;;;;;;;;0.80;0.80;;;;;-147.14;100.00;58812.66;4988082;28;45403;-68
2022/10/23 12:49:25;;;;;;;;;1.25;1.25;;;;;-147.14;100.00;58812.66;4989590;28;45813;-69
2022/10/23 12:52:14;;;;;;;;;3.25;1.50;;;;;-147.14;100.00;58812.66;4987456;28;45413;-68
2022/10/23 12:54:40;;;;;;;;;2.00;2.00;;;;;-147.14;100.00;58812.66;4986318;28;46210;-69
2022/10/23 12:57:24;;;;;;;;;1.00;1.00;;;;;-147.14;100.00;58812.66;4994866;28;45235;-68
2022/10/23 12:59:54;;;;;;;;;2.50;2.00;;;;;-147.14;100.00;58812.66;4980841;28;45460;-69
2022/10/23 13:02:28;;;;;;;;;1.75;1.25;;;;;-147.14;100.00;58812.66;4990312;28;45398;-69
2022/10/23 13:04:57;;;;;;;;;6.00;3.00;;;;;-147.14;100.00;58812.66;4980596;28;46386;-68
2022/10/23 13:07:28;;;;;;;;;2.40;0.60;;;;;-147.14;100.00;58812.66;4988514;28;45343;-68
2022/10/23 13:09:54;;;;;;;;;1.25;1.25;;;;;-147.14;100.00;58812.66;4981307;28;45515;-68
2022/10/23 13:12:23;;;;;;;;;3.75;2.00;;;;;-147.14;100.00;58812.66;4981256;28;53796;-68
2022/10/23 13:15:06;;;;;;;;;3.25;2.25;;;;;-147.14;100.00;58812.66;4998910;28;47163;-68
2022/10/23 13:17:34;;;;;;;;;1.00;0.00;;;;;-147.14;100.00;58812.66;4983333;28;45313;-69
2022/10/23 13:20:30;;;;;;;;;1.00;1.00;;;;;-147.14;100.00;58812.66;4981494;28;45547;-68
2022/10/23 13:23:01;;;;;;;;;2.25;2.00;;;;;-147.14;100.00;58812.66;4989059;28;45621;-68
2022/10/23 13:25:31;;;;;;;;;2.50;2.25;;;;;-147.14;100.00;58812.66;4988821;28;46161;-68
2022/10/23 13:28:18;;;;;;;;;2.25;2.25;;;;;-147.14;100.00;58812.66;4991922;28;45369;-68
2022/10/23 13:30:47;;;;;;;;;3.75;2.00;;;;;-147.14;100.00;58812.66;4987254;28;45341;-68
2022/10/23 13:33:38;;;;;;;;;3.00;2.00;;;;;-147.14;100.00;58812.66;4991783;28;45424;-68
2022/10/23 13:36:12;;;;;;;;;4.00;3.00;;;;;-147.14;100.00;58812.66;4987799;28;46170;-68
2022/10/23 13:38:40;;;;;;;;;4.50;2.25;;;;;-147.14;100.00;58812.66;4988439;28;45373;-68
2022/10/23 13:41:14;;;;;;;;;2.75;2.75;;;;;-147.14;100.00;58812.66;4985147;28;45411;-68
2022/10/23 13:43:40;;;;;;;;;2.50;2.00;;;;;-147.14;100.00;58812.66;4984694;28;45309;-68
2022/10/23 13:46:05;;;;;;;;;3.00;2.00;;;;;-147.14;100.00;58812.66;4983202;28;60498;-68
2022/10/23 13:48:30;;;;;;;;;7.25;3.25;;;;;-147.14;100.00;58812.66;4992111;28;45348;-68
2022/10/23 13:51:11;;;;;;;;;2.75;2.00;;;;;-147.14;100.00;58812.66;4982617;28;45419;-67
2022/10/23 13:53:36;;;;;;;;;2.75;2.50;;;;;-147.14;100.00;58812.66;4986963;28;45286;-67
2022/10/23 13:56:02;;;;;;;;;3.50;3.50;;;;;-147.14;100.00;58812.66;4980037;28;73738;-67
2022/10/23 13:58:27;;;;;;;;;2.25;2.25;;;;;-147.14;100.00;58812.66;4979430;28;66376;-67
2022/10/23 14:00:53;;;;;;;;;5.50;2.00;;;;;-147.14;100.00;58812.66;4986410;28;65112;-67
2022/10/23 14:03:19;;;;;;;;;3.75;2.25;;;;;-147.14;100.00;58812.66;4998300;28;45389;-67
2022/10/23 14:05:44;;;;;;;;;4.75;2.75;;;;;-147.14;100.00;58812.66;4980621;28;46136;-67
2022/10/23 14:08:10;;;;;;;;;3.25;2.25;;;;;-147.14;100.00;58812.66;4987498;28;45345;-67
2022/10/23 14:10:35;;;;;;;;;3.00;3.00;;;;;-147.14;100.00;58812.66;4979009;28;67364;-67
2022/10/23 14:13:00;;;;;;;;;4.75;2.50;;;;;-147.14;100.00;58812.66;4987964;28;70606;-67
2022/10/23 14:15:26;;;;;;;;;2.00;2.00;;;;;-147.14;100.00;58812.66;4988900;28;71339;-67
2022/10/23 14:17:51;;;;;;;;;6.50;2.00;;;;;-147.14;100.00;58812.66;4984894;28;68059;-67
2022/10/23 14:20:16;;;;;;;;;2.50;2.50;;;;;-147.14;100.00;58812.66;4993908;28;46004;-67
2022/10/23 14:22:42;;;;;;;;;2.25;2.00;;;;;-147.14;100.00;58812.66;4986048;28;45322;-67
2022/10/23 14:25:07;;;;;;;;;4.00;3.00;;;;;-147.14;100.00;58812.66;4981324;28;56628;-67
2022/10/23 14:27:32;;;;;;;;;1.50;1.50;;;;;-147.14;100.00;58812.66;4985593;28;45444;-67
2022/10/23 14:29:58;;;;;;;;;3.25;2.50;;;;;-147.14;100.00;58812.66;4985853;28;45761;-66
2022/10/23 14:32:23;;;;;;;;;3.00;3.00;;;;;-147.14;100.00;58812.66;4986256;28;45702;-67
2022/10/23 14:34:51;;;;;;;;;3.75;3.50;;;;;-147.14;100.00;58812.66;4982128;28;74849;-66
2022/10/23 14:37:17;;;;;;;;;4.50;2.00;;;;;-147.14;100.00;58812.66;4995897;28;45318;-66
2022/10/23 14:39:42;;;;;;;;;1.00;1.00;;;;;-147.14;100.00;58812.66;4983181;28;45414;-67
2022/10/23 14:42:08;;;;;;;;;7.50;4.50;;;;;-147.14;100.00;58812.66;4982708;28;65282;-67
2022/10/23 14:44:33;;;;;;;;;2.00;1.00;;;;;-147.14;100.00;58812.66;4981793;28;74817;-67
2022/10/23 14:46:58;;;;;;;;;4.00;3.50;;;;;-147.14;100.00;58812.66;4992429;28;45396;-67
2022/10/23 14:49:24;;;;;;;;;1.75;1.75;;;;;-147.14;100.00;58812.66;4983015;28;45359;-67
2022/10/23 14:51:49;;;;;;;;;6.00;4.00;;;;;-147.14;100.00;58812.66;4983367;28;56053;-67
2022/10/23 14:54:14;;;;;;;;;4.75;4.25;;;;;-147.14;100.00;58812.66;4982004;28;48757;-67
2022/10/23 14:56:40;;;;;;;;;5.75;3.00;;;;;-147.14;100.00;58812.66;4987474;28;45445;-67
2022/10/23 14:59:06;;;;;;;;;3.25;3.25;;;;;-147.14;100.00;58812.66;4977865;28;67211;-67
2022/10/23 15:01:34;;;;;;;;;2.00;2.00;;;;;-147.14;100.00;58812.66;4983916;28;45372;-67
2022/10/23 15:04:00;;;;;;;;;3.25;1.50;;;;;-147.14;100.00;58812.66;4990571;28;45446;-66
2022/10/23 15:06:25;;;;;;;;;4.75;2.25;;;;;-147.14;100.00;58812.66;4988013;28;69026;-68
2022/10/23 15:08:54;;;;;;;;;2.00;0.00;;;;;-147.14;100.00;58812.66;4992153;28;45381;-66
2022/10/23 15:11:20;;;;;;;;;5.00;3.00;;;;;-147.14;100.00;58812.66;4984636;28;45542;-66
2022/10/23 15:13:46;;;;;;;;;2.50;2.50;;;;;-147.14;100.00;58812.66;4982712;28;45328;-66
2022/10/23 15:16:11;;;;;;;;;4.25;3.25;;;;;-147.14;100.00;58812.66;4987640;28;73076;-66
2022/10/23 15:18:37;;;;;;;;;3.75;2.25;;;;;-147.14;100.00;58812.66;4979023;28;49012;-66
2022/10/23 15:21:04;;;;;;;;;1.00;1.00;;;;;-147.14;100.00;58812.66;4988300;28;45281;-66
2022/10/23 15:23:33;;;;;;;;;6.00;3.00;;;;;-147.14;100.00;58812.66;4978846;28;46310;-66
2022/10/23 15:26:03;;;;;;;;;3.00;2.00;;;;;-147.14;100.00;58812.66;4983937;28;45464;-66
2022/10/23 15:28:30;;;;;;;;;2.00;0.00;;;;;-147.14;100.00;58812.66;4978932;28;45228;-66
2022/10/23 15:30:55;;;;;;;;;2.75;2.75;;;;;-147.14;100.00;58812.66;4984058;28;45444;-67
2022/10/23 15:33:22;;;;;;;;;5.25;3.00;;;;;-147.14;100.00;58812.66;4986010;28;61877;-66
2022/10/23 15:35:47;;;;;;;;;3.00;1.00;;;;;-147.14;100.00;58812.66;4978288;28;45443;-66
2022/10/23 15:38:13;;;;;;;;;4.50;1.00;;;;;-147.14;100.00;58812.66;4985273;28;53219;-66
2022/10/23 15:40:38;;;;;;;;;2.50;2.25;;;;;-147.14;100.00;58812.66;4985714;28;45400;-66
2022/10/23 15:43:04;;;;;;;;;0.75;0.75;;;;;-147.14;100.00;58812.66;4978387;28;46213;-66
2022/10/23 15:45:31;;;;;;;;;2.75;2.00;;;;;-147.14;100.00;58812.66;4985391;28;45463;-66
2022/10/23 15:47:56;;;;;;;;;2.00;2.00;;;;;-147.14;100.00;58812.66;4985017;28;45513;-66
2022/10/23 15:50:22;;;;;;;;;0.00;0.00;;;;;-147.14;100.00;58812.66;4977457;28;68954;-67
2022/10/23 15:52:47;;;;;;;;;0.75;0.00;;;;;-147.14;100.00;58812.66;4990326;28;45274;-66
2022/10/23 15:55:13;;;;;;;;;0.00;0.00;;;;;-147.14;100.00;58812.66;4979072;28;45310;-68
2022/10/23 15:57:38;;;;;;;;;1.50;0.50;;;;;-147.14;100.00;58812.66;4978721;28;45300;-67
2022/10/23 16:00:06;;;;;;;;;1.25;0.00;;;;;-147.14;100.00;58812.66;4984437;28;45446;-67
2022/10/23 16:02:31;;;;;;;;;1.00;1.00;;;;;-147.14;100.00;58812.66;4978968;28;45270;-67
2022/10/23 16:04:57;;;;;;;;;0.00;0.00;;;;;-147.14;100.00;58812.66;4984866;28;71074;-67
2022/10/23 16:07:22;;;;;;;;;1.00;0.00;;;;;-147.14;100.00;58812.66;4981068;28;63416;-67
2022/10/23 16:09:47;;;;;;;;;0.00;0.00;;;;;-147.14;100.00;58812.66;4980695;28;65432;-67
2022/10/23 16:12:13;;;;;;;;;2.00;0.00;;;;;-147.14;100.00;58812.66;4990263;28;71010;-67
2022/10/23 16:14:38;;;;;;;;;1.00;1.00;;;;;-147.14;100.00;58812.66;4980967;28;72188;-67
2022/10/23 16:17:03;;;;;;;;;0.00;0.00;;;;;-147.14;100.00;58812.66;4980488;28;68293;-67
2022/10/23 16:19:29;;;;;;;;;1.00;1.00;;;;;-147.14;100.00;58812.66;4987046;28;67576;-67
2022/10/23 16:21:54;;;;;;;;;0.00;0.00;;;;;-147.14;100.00;58812.66;4990818;28;67350;-67
2022/10/23 16:24:19;;;;;;;;;0.00;0.00;;;;;-147.14;100.00;58812.66;4990993;28;69170;-67
2022/10/23 16:26:49;;;;;;;;;1.25;0.00;;;;;-147.14;100.00;58812.66;4986003;28;45315;-67
2022/10/23 16:29:14;;;;;;;;;0.50;0.00;;;;;-147.14;100.00;58812.66;4981324;28;45519;-67
2022/10/23 16:31:40;;;;;;;;;0.00;0.00;;;;;-147.14;100.00;58812.66;4989758;28;50169;-67
2022/10/23 16:34:05;;;;;;;;;0.00;0.00;;;;;-147.14;100.00;58812.66;4994318;28;45318;-67
2022/10/23 16:36:31;;;;;;;;;1.00;0.00;;;;;-147.14;100.00;58812.66;4996293;28;45349;-66
2022/10/23 16:38:57;;;;;;;;;0.00;0.00;;;;;-147.14;100.00;58812.66;4988233;28;45349;-66
2022/10/23 16:41:22;;;;;;;;;0.50;0.00;;;;;-147.14;100.00;58812.66;4980700;28;45673;-66
2022/10/23 16:43:48;;;;;;;;;0.00;0.00;;;;;-147.14;100.00;58812.66;4989147;28;45389;-67
2022/10/23 16:46:17;;;;;;;;;0.00;0.00;;;;;-147.14;100.00;58812.66;4985612;28;65992;-67
2022/10/23 16:48:43;;;;;;;;;0.00;0.00;;;;;-147.14;100.00;58812.66;4987251;28;45466;-67
2022/10/23 16:51:12;;;;;;;;;1.00;0.00;;;;;-147.14;100.00;58812.66;4989242;28;46841;-67
2022/10/23 16:53:38;;;;;;;;;0.00;0.00;;;;;-147.14;100.00;58812.66;4987776;28;45365;-67
2022/10/23 16:56:05;;;;;;;;;0.50;0.00;;;;;-147.14;100.00;58812.66;4990294;28;45380;-67
2022/10/23 16:58:31;;;;;;;;;0.50;0.00;;;;;-147.14;100.00;58812.66;4983512;28;45532;-68
2022/10/23 17:01:06;;;;;;;;;0.00;0.00;;;;;-147.14;100.00;58812.66;4985391;28;46231;-68
2022/10/23 17:03:36;;;;;;;;;0.00;0.00;;;;;-147.14;100.00;58812.66;4981188;28;45526;-68
2022/10/23 17:06:04;;;;;;;;;1.00;0.00;;;;;-147.14;100.00;58812.66;4987843;28;45357;-68
2022/10/23 17:08:29;;;;;;;;;0.00;0.00;;;;;-147.14;100.00;58812.66;4980959;28;45546;-68
2022/10/23 17:11:10;;;;;;;;;0.00;0.00;;;;;-147.14;100.00;58812.66;4988716;28;72121;-68
2022/10/23 17:13:39;;;;;;;;;0.50;0.00;;;;;-147.14;100.00;58812.66;4987160;28;45332;-69
2022/10/23 17:16:05;;;;;;;;;0.50;0.00;;;;;-147.14;100.00;58812.66;4986743;28;45696;-69
2022/10/23 17:18:32;;;;;;;;;0.50;0.50;;;;;-147.14;100.00;58812.66;4985424;28;45372;-68
2022/10/23 17:20:58;;;;;;;;;2.00;0.25;;;;;-147.14;100.00;58812.66;4985631;28;46204;-68
2022/10/23 17:23:24;;;;;;;;;0.50;0.00;;;;;-147.14;100.00;58812.66;4985460;28;45490;-68
2022/10/23 17:25:49;;;;;;;;;1.50;1.00;;;;;-147.14;100.00;58812.66;4979979;28;45322;-68